createdAt,value
2022-09-25T00:01:01.431Z,95921.41
2022-09-25T00:03:29.988Z,95913.03
2022-09-25T00:06:09.797Z,95910.91
2022-09-25T00:08:37.312Z,95904.59
2022-09-25T00:11:10.294Z,95903.50
2022-09-25T00:13:38.569Z,95893.78
2022-09-25T00:16:05.491Z,95886.72
2022-09-25T00:18:51.589Z,95882.50
2022-09-25T00:21:18.871Z,95873.59
2022-09-25T00:23:48.068Z,95871.44
2022-09-25T00:26:17.129Z,95885.13
2022-09-25T00:28:44.554Z,95891.13
2022-09-25T00:31:12.882Z,95902.38
2022-09-25T00:33:39.908Z,95898.44
2022-09-25T00:36:09.969Z,95897.13
2022-09-25T00:38:38.691Z,95882.44
2022-09-25T00:41:07.948Z,95875.66
2022-09-25T00:44:02.567Z,95874.06
2022-09-25T00:46:38.650Z,95877.50
2022-09-25T00:49:12.770Z,95882.75
2022-09-25T00:52:06.613Z,95879.09
2022-09-25T00:54:37.297Z,95869.91
2022-09-25T00:57:13.228Z,95860.69
2022-09-25T00:59:44.357Z,95855.72
2022-09-25T01:02:17.367Z,95851.53
2022-09-25T01:04:46.568Z,95841.31
2022-09-25T01:07:15.048Z,95835.28
2022-09-25T01:09:42.337Z,95835.81
2022-09-25T01:12:09.750Z,95841.06
2022-09-25T01:14:38.639Z,95843.41
2022-09-25T01:17:17.037Z,95841.31
2022-09-25T01:20:04.268Z,95832.34
2022-09-25T01:22:55.412Z,95838.41
2022-09-25T01:25:47.029Z,95841.81
2022-09-25T01:28:41.997Z,95844.19
2022-09-25T01:31:19.716Z,95845.78
2022-09-25T01:33:51.328Z,95838.94
2022-09-25T01:36:53.508Z,95849.41
2022-09-25T01:39:27.370Z,95834.44
2022-09-25T01:42:21.929Z,95826.31
2022-09-25T01:45:03.989Z,95829.19
2022-09-25T01:47:39.530Z,95835.78
2022-09-25T01:50:13.450Z,95829.72
2022-09-25T01:52:49.949Z,95833.69
2022-09-25T01:55:45.248Z,95831.56
2022-09-25T01:58:22.481Z,95826.56
2022-09-25T02:00:56.329Z,95818.97
2022-09-25T02:03:50.888Z,95813.97
2022-09-25T02:06:21.209Z,95818.69
2022-09-25T02:09:17.309Z,95816.84
2022-09-25T02:11:50.309Z,95822.09
2022-09-25T02:14:43.689Z,95812.88
2022-09-25T02:17:34.876Z,95821.00
2022-09-25T02:20:20.469Z,95832.78
2022-09-25T02:22:51.850Z,95835.69
2022-09-25T02:25:41.189Z,95843.00
2022-09-25T02:28:08.557Z,95838.28
2022-09-25T02:30:35.723Z,95847.69
2022-09-25T02:33:02.971Z,95846.56
2022-09-25T02:35:30.310Z,95852.38
2022-09-25T02:37:57.591Z,95853.97
2022-09-25T02:40:48.866Z,95871.28
2022-09-25T02:43:50.350Z,95867.88
2022-09-25T02:46:51.729Z,95876.78
2022-09-25T02:49:55.048Z,95872.63
2022-09-25T02:53:11.708Z,95857.16
2022-09-25T02:55:48.849Z,95860.31
2022-09-25T02:58:39.988Z,95865.56
2022-09-25T03:01:10.480Z,95871.13
2022-09-25T03:03:40.229Z,95858.78
2022-09-25T03:06:09.028Z,95850.91
2022-09-25T03:08:39.611Z,95845.94
2022-09-25T03:11:18.309Z,95852.78
2022-09-25T03:13:46.668Z,95865.16
2022-09-25T03:16:13.481Z,95856.47
2022-09-25T03:18:41.129Z,95850.72
2022-09-25T03:21:08.230Z,95857.53
2022-09-25T03:23:35.249Z,95846.78
2022-09-25T03:26:02.248Z,95837.31
2022-09-25T03:28:29.510Z,95826.03
2022-09-25T03:31:10.848Z,95819.72
2022-09-25T03:33:40.296Z,95828.41
2022-09-25T03:36:11.789Z,95826.56
2022-09-25T03:38:41.489Z,95823.13
2022-09-25T03:41:10.691Z,95821.56
2022-09-25T03:43:39.489Z,95826.56
2022-09-25T03:46:11.645Z,95817.63
2022-09-25T03:48:39.349Z,95828.66
2022-09-25T03:51:07.490Z,95837.31
2022-09-25T03:53:34.408Z,95831.81
2022-09-25T03:56:03.910Z,95827.84
2022-09-25T03:58:30.988Z,95835.47
2022-09-25T04:00:58.520Z,95834.63
2022-09-25T04:03:29.831Z,95832.56
2022-09-25T04:05:59.151Z,95841.75
2022-09-25T04:08:27.530Z,95837.81
2022-09-25T04:11:01.893Z,95839.63
2022-09-25T04:13:32.288Z,95840.19
2022-09-25T04:16:01.406Z,95841.47
2022-09-25T04:18:32.023Z,95840.16
2022-09-25T04:21:04.765Z,95841.22
2022-09-25T04:23:32.677Z,95841.22
2022-09-25T04:25:59.636Z,95834.63
2022-09-25T04:28:27.559Z,95843.84
2022-09-25T04:30:54.775Z,95834.44
2022-09-25T04:33:40.492Z,95839.94
2022-09-25T04:36:07.952Z,95834.97
2022-09-25T04:38:35.078Z,95844.16
2022-09-25T04:41:02.836Z,95854.41
2022-09-25T04:43:30.870Z,95847.31
2022-09-25T04:46:09.194Z,95853.34
2022-09-25T04:48:36.421Z,95850.97
2022-09-25T04:51:04.572Z,95861.44
2022-09-25T04:53:35.276Z,95861.44
2022-09-25T04:56:04.653Z,95869.88
2022-09-25T04:58:31.874Z,95870.94
2022-09-25T05:01:06.683Z,95874.88
2022-09-25T05:03:33.923Z,95870.94
2022-09-25T05:06:00.934Z,95871.44
2022-09-25T05:08:28.398Z,95864.84
2022-09-25T05:10:55.481Z,95869.31
2022-09-25T05:13:22.533Z,95874.31
2022-09-25T05:15:49.622Z,95866.97
2022-09-25T05:18:20.085Z,95875.66
2022-09-25T05:20:47.517Z,95871.19
2022-09-25T05:23:14.713Z,95881.69
2022-09-25T05:25:41.832Z,95880.91
2022-09-25T05:28:10.560Z,95876.44
2022-09-25T05:30:39.160Z,95880.63
2022-09-25T05:33:06.231Z,95882.72
2022-09-25T05:35:34.109Z,95883.78
2022-09-25T05:38:01.195Z,95884.81
2022-09-25T05:40:28.676Z,95892.44
2022-09-25T05:42:55.715Z,95885.38
2022-09-25T05:45:26.230Z,95888.25
2022-09-25T05:48:07.889Z,95896.13
2022-09-25T05:50:35.631Z,95897.47
2022-09-25T05:53:05.077Z,95901.94
2022-09-25T05:55:32.256Z,95908.50
2022-09-25T05:58:03.472Z,95904.03
2022-09-25T06:00:34.730Z,95911.41
2022-09-25T06:03:02.418Z,95906.19
2022-09-25T06:05:30.259Z,95905.09
2022-09-25T06:07:57.379Z,95898.56
2022-09-25T06:10:26.283Z,95896.47
2022-09-25T06:12:59.073Z,95896.47
2022-09-25T06:15:30.118Z,95893.56
2022-09-25T06:17:57.279Z,95893.31
2022-09-25T06:20:25.311Z,95898.31
2022-09-25T06:22:56.192Z,95895.41
2022-09-25T06:25:26.196Z,95894.63
2022-09-25T06:27:54.932Z,95898.56
2022-09-25T06:30:23.551Z,95888.59
2022-09-25T06:32:57.863Z,95886.75
2022-09-25T06:35:24.970Z,95896.22
2022-09-25T06:37:52.473Z,95898.84
2022-09-25T06:40:19.649Z,95905.41
2022-09-25T06:42:46.691Z,95899.34
2022-09-25T06:45:13.850Z,95890.44
2022-09-25T06:47:40.914Z,95901.97
2022-09-25T06:50:08.570Z,95897.78
2022-09-25T06:52:42.850Z,95889.88
2022-09-25T06:55:09.950Z,95889.09
2022-09-25T06:57:38.334Z,95887.25
2022-09-25T07:00:06.418Z,95884.13
2022-09-25T07:02:52.214Z,95900.44
2022-09-25T07:05:19.391Z,95890.19
2022-09-25T07:07:46.658Z,95893.59
2022-09-25T07:10:13.733Z,95895.19
2022-09-25T07:12:41.790Z,95900.44
2022-09-25T07:15:09.278Z,95894.94
2022-09-25T07:17:36.435Z,95893.91
2022-09-25T07:20:04.038Z,95893.13
2022-09-25T07:22:31.002Z,95891.81
2022-09-25T07:24:58.049Z,95892.09
2022-09-25T07:27:25.318Z,95894.19
2022-09-25T07:29:52.731Z,95887.88
2022-09-25T07:32:20.857Z,95886.84
2022-09-25T07:34:50.431Z,95891.03
2022-09-25T07:37:20.610Z,95886.31
2022-09-25T07:39:47.637Z,95888.69
2022-09-25T07:42:14.640Z,95891.56
2022-09-25T07:44:44.845Z,95899.47
2022-09-25T07:47:15.481Z,95887.38
2022-09-25T07:49:42.411Z,95881.66
2022-09-25T07:52:09.360Z,95883.72
2022-09-25T07:54:36.791Z,95892.69
2022-09-25T07:57:03.842Z,95882.41
2022-09-25T07:59:30.743Z,95882.41
2022-09-25T08:01:58.389Z,95888.47
2022-09-25T08:04:25.362Z,95893.19
2022-09-25T08:06:52.281Z,95895.31
2022-09-25T08:09:19.271Z,95896.09
2022-09-25T08:11:46.290Z,95900.31
2022-09-25T08:14:14.685Z,95905.84
2022-09-25T08:16:43.182Z,95905.28
2022-09-25T08:19:13.120Z,95902.41
2022-09-25T08:21:40.082Z,95910.28
2022-09-25T08:24:07.234Z,95912.13
2022-09-25T08:26:34.323Z,95919.75
2022-09-25T08:29:01.441Z,95915.28
2022-09-25T08:31:28.715Z,95919.22
2022-09-25T08:33:55.742Z,95915.28
2022-09-25T08:36:23.911Z,95913.19
2022-09-25T08:38:53.214Z,95924.75
2022-09-25T08:41:27.242Z,95926.09
2022-09-25T08:44:19.933Z,95921.63
2022-09-25T08:47:09.703Z,95917.41
2022-09-25T08:49:45.881Z,95921.06
2022-09-25T08:52:18.307Z,95919.53
2022-09-25T08:54:45.975Z,95930.81
2022-09-25T08:57:43.722Z,95933.97
2022-09-25T09:00:20.890Z,95938.97
2022-09-25T09:02:54.305Z,95939.75
2022-09-25T09:05:30.513Z,95935.28
2022-09-25T09:08:06.442Z,95939.75
2022-09-25T09:10:45.162Z,95938.97
2022-09-25T09:13:35.149Z,95924.78
2022-09-25T09:16:02.244Z,95927.38
2022-09-25T09:18:31.582Z,95920.28
2022-09-25T09:21:22.821Z,95915.28
2022-09-25T09:24:14.681Z,95910.56
2022-09-25T09:26:53.693Z,95913.97
2022-09-25T09:29:35.042Z,95906.63
2022-09-25T09:32:20.363Z,95916.34
2022-09-25T09:35:06.726Z,95916.34
2022-09-25T09:37:37.345Z,95917.94
2022-09-25T09:40:29.251Z,95913.47
2022-09-25T09:43:05.104Z,95923.44
2022-09-25T09:45:44.464Z,95908.22
2022-09-25T09:48:39.445Z,95905.28
2022-09-25T09:51:35.610Z,95918.44
2022-09-25T09:54:14.117Z,95926.59
2022-09-25T09:56:45.052Z,95922.91
2022-09-25T09:59:23.447Z,95910.56
2022-09-25T10:02:01.726Z,95915.56
2022-09-25T10:04:38.321Z,95918.19
2022-09-25T10:07:12.322Z,95918.44
2022-09-25T10:09:39.343Z,95912.94
2022-09-25T10:12:14.935Z,95910.81
2022-09-25T10:14:46.026Z,95900.84
2022-09-25T10:17:13.052Z,95903.44
2022-09-25T10:19:44.483Z,95906.88
2022-09-25T10:22:17.207Z,95907.41
2022-09-25T10:24:55.309Z,95904.25
2022-09-25T10:27:28.801Z,95904.50
2022-09-25T10:30:09.831Z,95903.44
2022-09-25T10:33:01.434Z,95904.50
2022-09-25T10:35:42.723Z,95903.41
2022-09-25T10:39:24.210Z,95887.88
2022-09-25T10:41:47.913Z,95887.88
2022-09-25T10:44:24.065Z,95895.47
2022-09-25T10:47:09.902Z,95885.75
2022-09-25T10:50:06.699Z,95871.50
2022-09-25T10:52:53.935Z,95869.91
2022-09-25T10:55:46.617Z,95867.25
2022-09-25T10:58:20.353Z,95866.16
2022-09-25T11:00:47.274Z,95870.09
2022-09-25T11:13:37.121Z,95864.41
2022-09-25T11:16:10.655Z,95867.56
2022-09-25T11:18:43.512Z,95856.00
2022-09-25T11:21:26.190Z,95854.09
2022-09-25T11:23:55.967Z,95858.78
2022-09-25T11:26:29.203Z,95866.16
2022-09-25T11:29:15.238Z,95861.59
2022-09-25T11:31:56.403Z,95858.41
2022-09-25T11:34:36.765Z,95859.63
2022-09-25T11:37:20.380Z,95856.38
2022-09-25T11:40:14.024Z,95859.97
2022-09-25T11:42:54.071Z,95843.72
2022-09-25T11:45:30.713Z,95836.16
2022-09-25T11:48:13.353Z,95842.94
2022-09-25T11:50:53.309Z,95835.69
2022-09-25T11:53:33.734Z,95837.03
2022-09-25T11:56:19.352Z,95842.06
2022-09-25T11:58:58.123Z,95844.41
2022-09-25T12:01:45.929Z,95842.16
2022-09-25T12:04:15.888Z,95825.16
2022-09-25T12:07:03.002Z,95832.38
2022-09-25T12:09:54.981Z,95829.44
2022-09-25T12:12:42.921Z,95821.81
2022-09-25T12:15:47.956Z,95814.78
2022-09-25T12:18:34.404Z,95815.13
2022-09-25T12:21:07.982Z,95820.41
2022-09-25T12:23:43.337Z,95814.31
2022-09-25T12:26:39.745Z,95808.50
2022-09-25T12:29:27.140Z,95798.72
2022-09-25T12:32:04.594Z,95796.28
2022-09-25T12:34:52.815Z,95788.25
2022-09-25T12:37:27.635Z,95785.16
2022-09-25T12:40:00.139Z,95775.22
2022-09-25T12:42:45.284Z,95777.19
2022-09-25T12:45:45.977Z,95776.13
2022-09-25T12:48:38.004Z,95767.91
2022-09-25T12:51:51.725Z,95760.66
2022-09-25T12:54:51.116Z,95760.94
2022-09-25T12:57:33.114Z,95774.97
2022-09-25T13:00:15.216Z,95771.09
2022-09-25T13:02:51.590Z,95781.97
2022-09-25T13:05:34.796Z,95768.59
2022-09-25T13:08:13.060Z,95772.50
2022-09-25T13:10:49.209Z,95768.53
2022-09-25T13:13:21.446Z,95770.91
2022-09-25T13:15:57.605Z,95773.47
2022-09-25T13:18:27.226Z,95770.63
2022-09-25T13:21:20.043Z,95769.53
2022-09-25T13:23:51.400Z,95762.59
2022-09-25T13:26:25.320Z,95760.78
2022-09-25T13:29:04.661Z,95760.19
2022-09-25T13:31:34.522Z,95762.97
2022-09-25T13:34:01.402Z,95763.81
2022-09-25T13:36:39.682Z,95763.91
2022-09-25T13:39:59.686Z,95767.72
2022-09-25T13:42:26.802Z,95762.41
2022-09-25T13:45:08.682Z,95769.00
2022-09-25T13:47:38.721Z,95756.91
2022-09-25T13:50:19.607Z,95757.31
2022-09-25T13:53:09.290Z,95754.63
2022-09-25T13:55:44.140Z,95752.66
2022-09-25T13:58:24.361Z,95741.44
2022-09-25T14:00:57.858Z,95745.44
2022-09-25T14:03:44.796Z,95749.09
2022-09-25T14:06:23.760Z,95749.38
2022-09-25T14:08:53.572Z,95737.34
2022-09-25T14:11:27.124Z,95739.69
2022-09-25T14:13:56.975Z,95742.63
2022-09-25T14:16:27.875Z,95739.28
2022-09-25T14:18:58.488Z,95733.50
2022-09-25T14:21:29.124Z,95730.06
2022-09-25T14:23:58.266Z,95724.66
2022-09-25T14:26:27.801Z,95725.34
2022-09-25T14:28:57.492Z,95727.41
2022-09-25T14:31:33.360Z,95719.97
2022-09-25T14:34:22.341Z,95716.94
2022-09-25T14:36:59.240Z,95701.91
2022-09-25T14:39:48.311Z,95691.13
2022-09-25T14:42:53.230Z,95695.41
2022-09-25T14:45:44.542Z,95691.19
2022-09-25T14:48:20.522Z,95693.06
2022-09-25T14:50:51.142Z,95695.59
2022-09-25T14:53:30.111Z,95693.53
2022-09-25T14:55:58.991Z,95696.59
2022-09-25T14:58:30.462Z,95693.38
2022-09-25T15:01:02.320Z,95697.97
2022-09-25T15:03:32.102Z,95693.75
2022-09-25T15:06:04.055Z,95686.28
2022-09-25T15:08:31.044Z,95690.09
2022-09-25T15:11:03.984Z,95690.88
2022-09-25T15:13:33.872Z,95687.22
2022-09-25T15:16:20.775Z,95690.63
2022-09-25T15:18:54.416Z,95697.47
2022-09-25T15:21:31.133Z,95694.78
2022-09-25T15:24:10.013Z,95687.78
2022-09-25T15:26:44.442Z,95689.78
2022-09-25T15:29:18.563Z,95689.56
2022-09-25T15:31:51.074Z,95684.13
2022-09-25T15:34:30.236Z,95683.81
2022-09-25T15:37:29.638Z,95690.16
2022-09-25T15:40:00.944Z,95686.69
2022-09-25T15:42:28.021Z,95687.28
2022-09-25T15:44:57.592Z,95694.00
2022-09-25T15:47:36.885Z,95683.53
2022-09-25T15:50:11.739Z,95683.72
2022-09-25T15:52:42.276Z,95681.69
2022-09-25T15:55:15.785Z,95681.78
2022-09-25T15:57:43.550Z,95688.72
2022-09-25T16:00:42.251Z,95678.06
2022-09-25T16:03:43.974Z,95675.41
2022-09-25T16:06:17.536Z,95682.50
2022-09-25T16:08:45.375Z,95670.94
2022-09-25T16:11:16.925Z,95668.34
2022-09-25T16:13:49.480Z,95672.38
2022-09-25T16:16:21.344Z,95674.78
2022-09-25T16:18:49.483Z,95674.13
2022-09-25T16:21:27.801Z,95670.97
2022-09-25T16:24:07.618Z,95682.94
2022-09-25T16:26:40.466Z,95685.91
2022-09-25T16:29:13.532Z,95685.91
2022-09-25T16:31:43.854Z,95681.03
2022-09-25T16:34:31.787Z,95685.97
2022-09-25T16:37:03.360Z,95675.50
2022-09-25T16:39:31.800Z,95674.41
2022-09-25T16:42:00.283Z,95683.16
2022-09-25T16:44:28.361Z,95677.75
2022-09-25T16:46:55.300Z,95671.06
2022-09-25T16:49:22.926Z,95677.09
2022-09-25T16:51:52.555Z,95681.13
2022-09-25T16:54:21.687Z,95676.63
2022-09-25T16:56:49.260Z,95669.25
2022-09-25T16:59:25.120Z,95676.94
2022-09-25T17:01:58.141Z,95670.56
2022-09-25T17:04:28.080Z,95685.31
2022-09-25T17:06:58.391Z,95681.72
2022-09-25T17:09:28.540Z,95681.16
2022-09-25T17:12:08.790Z,95678.00
2022-09-25T17:14:36.521Z,95671.41
2022-09-25T17:17:03.591Z,95681.94
2022-09-25T17:19:31.918Z,95681.13
2022-09-25T17:21:59.620Z,95678.22
2022-09-25T17:24:27.740Z,95678.22
2022-09-25T17:26:54.930Z,95689.53
2022-09-25T17:29:22.817Z,95688.75
2022-09-25T17:31:49.923Z,95685.63
2022-09-25T17:34:25.463Z,95690.66
2022-09-25T17:36:52.621Z,95683.56
2022-09-25T17:39:19.640Z,95682.53
2022-09-25T17:41:47.318Z,95688.38
2022-09-25T17:44:21.209Z,95694.41
2022-09-25T17:46:49.219Z,95690.78
2022-09-25T17:49:16.655Z,95688.91
2022-09-25T17:51:43.963Z,95697.09
2022-09-25T17:54:13.062Z,95698.72
2022-09-25T17:56:55.730Z,95695.31
2022-09-25T17:59:24.388Z,95702.44
2022-09-25T18:01:51.453Z,95695.59
2022-09-25T18:04:20.712Z,95693.53
2022-09-25T18:06:48.241Z,95686.16
2022-09-25T18:09:15.280Z,95691.97
2022-09-25T18:11:46.812Z,95709.34
2022-09-25T18:14:16.631Z,95703.84
2022-09-25T18:16:44.953Z,95700.97
2022-09-25T18:19:36.726Z,95689.91
2022-09-25T18:22:22.075Z,95693.81
2022-09-25T18:24:59.541Z,95700.66
2022-09-25T18:27:30.823Z,95700.38
2022-09-25T18:29:58.443Z,95701.97
2022-09-25T18:32:26.211Z,95698.81
2022-09-25T18:34:53.363Z,95702.72
2022-09-25T18:37:20.412Z,95714.03
2022-09-25T18:39:48.471Z,95700.59
2022-09-25T18:42:16.032Z,95703.50
2022-09-25T18:44:43.460Z,95699.81
2022-09-25T18:47:13.191Z,95695.06
2022-09-25T18:49:41.185Z,95696.34
2022-09-25T18:52:14.381Z,95693.72
2022-09-25T18:54:42.574Z,95684.47
2022-09-25T18:57:11.860Z,95700.03
2022-09-25T18:59:41.338Z,95703.72
2022-09-25T19:02:23.607Z,95698.72
2022-09-25T19:04:55.229Z,95690.81
2022-09-25T19:07:24.421Z,95681.34
2022-09-25T19:09:52.892Z,95668.97
2022-09-25T19:12:21.079Z,95668.44
2022-09-25T19:14:48.798Z,95675.00
2022-09-25T19:17:17.091Z,95684.50
2022-09-25T19:19:44.542Z,95680.84
2022-09-25T19:22:19.990Z,95684.28
2022-09-25T19:24:49.034Z,95684.81
2022-09-25T19:27:17.351Z,95691.97
2022-09-25T19:29:47.681Z,95682.00
2022-09-25T19:32:17.652Z,95695.16
2022-09-25T19:34:45.243Z,95683.59
2022-09-25T19:37:12.781Z,95689.38
2022-09-25T19:39:59.224Z,95682.22
2022-09-25T19:42:28.421Z,95675.38
2022-09-25T19:44:56.782Z,95674.88
2022-09-25T19:47:24.393Z,95672.75
2022-09-25T19:49:51.409Z,95669.84
2022-09-25T19:52:20.793Z,95663.50
2022-09-25T19:54:48.321Z,95670.06
2022-09-25T20:01:18.634Z,95657.94
2022-09-25T20:03:47.402Z,95655.31
2022-09-25T20:06:16.242Z,95655.81
2022-09-25T20:08:44.312Z,95657.66
2022-09-25T20:11:20.882Z,95662.91
2022-09-25T20:13:49.282Z,95659.81
2022-09-25T20:16:19.106Z,95656.69
2022-09-25T20:18:51.683Z,95650.63
2022-09-25T20:21:21.470Z,95651.13
2022-09-25T20:23:53.346Z,95648.78
2022-09-25T20:26:21.062Z,95648.53
2022-09-25T20:28:53.120Z,95649.84
2022-09-25T20:31:20.805Z,95649.63
2022-09-25T20:33:47.931Z,95655.66
2022-09-25T20:36:16.601Z,95656.72
2022-09-25T20:38:45.591Z,95655.91
2022-09-25T20:41:13.779Z,95655.63
2022-09-25T20:43:41.261Z,95650.38
2022-09-25T20:46:11.187Z,95644.56
2022-09-25T20:48:47.327Z,95639.31
2022-09-25T20:51:17.129Z,95634.53
2022-09-25T20:53:48.883Z,95638.25
2022-09-25T20:56:16.233Z,95637.94
2022-09-25T20:58:45.316Z,95627.94
2022-09-25T21:01:17.534Z,95619.78
2022-09-25T21:03:46.648Z,95631.09
2022-09-25T21:06:25.000Z,95620.81
2022-09-25T21:08:54.391Z,95612.13
2022-09-25T21:11:22.575Z,95610.28
2022-09-25T21:13:51.502Z,95615.56
2022-09-25T21:16:20.046Z,95625.31
2022-09-25T21:18:56.149Z,95624.00
2022-09-25T21:21:24.811Z,95626.63
2022-09-25T21:23:54.420Z,95619.81
2022-09-25T21:26:23.883Z,95610.34
2022-09-25T21:28:52.615Z,95605.34
2022-09-25T21:31:25.129Z,95605.84
2022-09-25T21:33:53.901Z,95601.91
2022-09-25T21:36:22.123Z,95604.56
2022-09-25T21:38:49.621Z,95600.13
2022-09-25T21:41:19.102Z,95606.44
2022-09-25T21:43:46.853Z,95597.25
2022-09-25T21:46:16.198Z,95597.50
2022-09-25T21:48:49.493Z,95584.13
2022-09-25T21:51:17.542Z,95593.59
2022-09-25T21:53:44.741Z,95600.97
2022-09-25T21:56:14.881Z,95610.19
2022-09-25T21:58:41.813Z,95600.44
2022-09-25T22:01:20.180Z,95587.28
2022-09-25T22:03:50.001Z,95577.31
2022-09-25T22:06:23.031Z,95571.28
2022-09-25T22:08:58.802Z,95571.59
2022-09-25T22:11:26.370Z,95568.44
2022-09-25T22:13:53.612Z,95567.13
2022-09-25T22:16:26.228Z,95567.16
2022-09-25T22:18:59.920Z,95579.81
2022-09-25T22:21:29.900Z,95575.09
2022-09-25T22:23:57.571Z,95575.63
2022-09-25T22:26:25.340Z,95567.00
2022-09-25T22:28:52.802Z,95560.94
2022-09-25T22:31:23.588Z,95556.22
2022-09-25T22:33:55.523Z,95552.53
2022-09-25T22:36:23.043Z,95551.75
2022-09-25T22:38:49.963Z,95558.06
2022-09-25T22:41:17.111Z,95558.34
2022-09-25T22:43:44.101Z,95558.34
2022-09-25T22:46:12.741Z,95553.34
2022-09-25T22:48:39.958Z,95542.56
2022-09-25T22:51:18.643Z,95549.38
2022-09-25T22:53:46.781Z,95544.91
2022-09-25T22:56:23.248Z,95535.97
2022-09-25T22:58:54.402Z,95539.38
2022-09-25T23:01:39.429Z,95543.31
2022-09-25T23:04:12.122Z,95542.84
2022-09-25T23:06:39.276Z,95542.84
2022-09-25T23:09:09.183Z,95539.16
2022-09-25T23:11:36.331Z,95543.63
2022-09-25T23:14:07.129Z,95541.28
2022-09-25T23:16:34.977Z,95530.25
2022-09-25T23:19:02.561Z,95531.31
2022-09-25T23:21:30.959Z,95534.47
2022-09-25T23:24:03.601Z,95537.88
2022-09-25T23:26:31.100Z,95530.81
2022-09-25T23:28:59.380Z,95531.88
2022-09-25T23:31:26.356Z,95533.19
2022-09-25T23:33:53.351Z,95534.78
2022-09-25T23:36:23.361Z,95527.22
2022-09-25T23:38:52.422Z,95523.50
2022-09-25T23:41:25.270Z,95530.34
2022-09-25T23:43:53.961Z,95524.03
2022-09-25T23:46:23.233Z,95534.03
2022-09-25T23:48:51.201Z,95535.63
2022-09-25T23:51:20.400Z,95530.34
2022-09-25T23:53:48.781Z,95528.75
2022-09-25T23:56:19.761Z,95536.34
2022-09-25T23:58:47.960Z,95529.81
